createdAt,value
2023-02-11T00:00:30.798Z,-0.70
2023-02-11T00:02:57.478Z,-0.61
2023-02-11T00:05:24.071Z,-0.51
2023-02-11T00:07:50.688Z,-0.54
2023-02-11T00:10:17.382Z,-0.92
2023-02-11T00:12:43.977Z,-0.99
2023-02-11T00:15:11.053Z,-0.84
2023-02-11T00:17:37.665Z,-0.67
2023-02-11T00:20:07.221Z,-0.77
2023-02-11T00:22:34.702Z,-0.67
2023-02-11T00:25:01.482Z,-0.62
2023-02-11T00:27:28.093Z,-0.61
2023-02-11T00:29:54.833Z,-0.53
2023-02-11T00:32:21.787Z,-0.63
2023-02-11T00:34:52.423Z,-0.64
2023-02-11T00:37:19.036Z,-0.78
2023-02-11T00:39:45.770Z,-0.91
2023-02-11T00:42:14.973Z,-1.02
2023-02-11T00:44:41.735Z,-1.08
2023-02-11T00:47:08.356Z,-0.92
2023-02-11T00:49:35.150Z,-0.87
2023-02-11T00:52:01.775Z,-0.91
2023-02-11T00:54:29.992Z,-1.07
2023-02-11T00:56:56.692Z,-0.94
2023-02-11T00:59:23.291Z,-1.20
2023-02-11T01:01:49.933Z,-1.35
2023-02-11T01:04:16.582Z,-1.62
2023-02-11T01:06:43.186Z,-1.77
2023-02-11T01:09:09.856Z,-1.63
2023-02-11T01:11:36.492Z,-1.81
2023-02-11T01:14:03.215Z,-1.95
2023-02-11T01:16:29.951Z,-2.01
2023-02-11T01:18:56.692Z,-1.76
2023-02-11T01:21:23.341Z,-1.55
2023-02-11T01:23:49.941Z,-1.39
2023-02-11T01:26:16.890Z,-1.53
2023-02-11T01:28:43.623Z,-1.46
2023-02-11T01:31:10.401Z,-1.43
2023-02-11T01:33:37.081Z,-1.48
2023-02-11T01:36:05.508Z,-1.43
2023-02-11T01:38:33.110Z,-1.34
2023-02-11T01:41:06.948Z,-1.39
2023-02-11T01:43:41.422Z,-1.29
2023-02-11T01:46:29.901Z,-1.13
2023-02-11T01:49:11.158Z,-1.33
2023-02-11T01:51:45.987Z,-1.33
2023-02-11T01:54:35.278Z,-1.54
2023-02-11T01:57:22.417Z,-1.39
2023-02-11T02:00:07.374Z,-1.32
2023-02-11T02:03:12.586Z,-1.34
2023-02-11T02:05:46.671Z,-1.33
2023-02-11T02:08:36.221Z,-1.25
2023-02-11T02:11:03.714Z,-1.42
2023-02-11T02:13:33.969Z,-1.39
2023-02-11T02:16:09.686Z,-1.28
2023-02-11T02:18:51.604Z,-1.42
2023-02-11T02:21:46.169Z,-1.37
2023-02-11T02:24:35.766Z,-1.75
2023-02-11T02:27:14.179Z,-1.50
2023-02-11T02:30:18.305Z,-1.36
2023-02-11T02:32:51.000Z,-1.67
2023-02-11T02:35:23.698Z,-1.80
2023-02-11T02:38:16.233Z,-1.74
2023-02-11T02:41:01.565Z,-1.87
2023-02-11T02:43:30.265Z,-1.85
2023-02-11T02:46:18.847Z,-1.55
2023-02-11T02:48:46.288Z,-2.18
2023-02-11T02:51:50.472Z,-2.08
2023-02-11T02:54:38.958Z,-1.71
2023-02-11T02:57:59.381Z,-1.51
2023-02-11T03:00:34.813Z,-1.53
2023-02-11T03:03:18.099Z,-1.84
2023-02-11T03:06:05.149Z,-1.66
2023-02-11T03:08:47.013Z,-1.77
2023-02-11T03:11:17.687Z,-1.80
2023-02-11T03:13:46.146Z,-1.79
2023-02-11T03:16:20.046Z,-1.73
2023-02-11T03:18:52.841Z,-1.81
2023-02-11T03:21:20.745Z,-1.69
2023-02-11T03:23:54.054Z,-1.63
2023-02-11T03:26:33.017Z,-1.77
2023-02-11T03:29:14.669Z,-1.71
2023-02-11T03:31:54.929Z,-1.80
2023-02-11T03:34:27.021Z,-1.71
2023-02-11T03:37:04.394Z,-1.81
2023-02-11T03:39:37.099Z,-1.86
2023-02-11T03:42:05.952Z,-1.79
2023-02-11T03:44:38.780Z,-1.93
2023-02-11T03:47:09.414Z,-1.87
2023-02-11T03:49:38.540Z,-1.94
2023-02-11T03:52:07.872Z,-1.91
2023-02-11T03:54:35.263Z,-1.95
2023-02-11T03:57:02.744Z,-1.97
2023-02-11T03:59:29.814Z,-1.92
2023-02-11T04:01:57.745Z,-1.92
2023-02-11T04:04:24.412Z,-1.91
2023-02-11T04:06:51.016Z,-2.06
2023-02-11T04:09:17.668Z,-1.90
2023-02-11T04:11:44.248Z,-1.91
2023-02-11T04:14:10.870Z,-1.93
2023-02-11T04:16:37.587Z,-2.15
2023-02-11T04:19:04.273Z,-2.62
2023-02-11T04:21:30.864Z,-2.59
2023-02-11T04:23:57.447Z,-2.74
2023-02-11T04:26:24.046Z,-2.87
2023-02-11T04:28:50.644Z,-2.49
2023-02-11T04:31:17.327Z,-2.41
2023-02-11T04:33:43.988Z,-2.30
2023-02-11T04:36:10.573Z,-2.27
2023-02-11T04:38:37.183Z,-2.15
2023-02-11T04:41:03.887Z,-2.40
2023-02-11T04:43:30.476Z,-2.31
2023-02-11T04:45:58.931Z,-2.10
2023-02-11T04:48:26.665Z,-1.96
2023-02-11T04:50:53.292Z,-1.98
2023-02-11T04:53:20.140Z,-2.02
2023-02-11T04:55:50.559Z,-2.11
2023-02-11T04:58:18.970Z,-2.32
2023-02-11T05:00:46.253Z,-2.31
2023-02-11T05:03:13.196Z,-2.18
2023-02-11T05:05:40.784Z,-2.16
2023-02-11T05:08:08.562Z,-2.22
2023-02-11T05:10:35.321Z,-2.08
2023-02-11T05:13:01.924Z,-2.03
2023-02-11T05:15:29.513Z,-1.91
2023-02-11T05:17:56.437Z,-2.19
2023-02-11T05:20:23.010Z,-2.33
2023-02-11T05:22:49.628Z,-2.50
2023-02-11T05:25:16.239Z,-2.28
2023-02-11T05:27:42.838Z,-2.23
2023-02-11T05:30:10.754Z,-2.12
2023-02-11T05:32:37.406Z,-1.90
2023-02-11T05:35:04.202Z,-1.92
2023-02-11T05:37:30.906Z,-2.00
2023-02-11T05:39:57.522Z,-1.98
2023-02-11T05:42:24.138Z,-1.88
2023-02-11T05:44:50.845Z,-2.13
2023-02-11T05:47:17.510Z,-3.00
2023-02-11T05:49:44.088Z,-2.89
2023-02-11T05:52:10.652Z,-2.57
2023-02-11T05:54:37.262Z,-2.40
2023-02-11T05:57:03.898Z,-2.24
2023-02-11T05:59:30.638Z,-2.14
2023-02-11T06:01:57.279Z,-1.96
2023-02-11T06:04:23.904Z,-1.91
2023-02-11T06:06:50.568Z,-1.99
2023-02-11T06:09:17.195Z,-1.89
2023-02-11T06:11:43.793Z,-1.80
2023-02-11T06:14:11.056Z,-1.68
2023-02-11T06:16:38.298Z,-1.63
2023-02-11T06:19:04.871Z,-1.60
2023-02-11T06:21:42.883Z,-1.51
2023-02-11T06:24:10.385Z,-2.00
2023-02-11T06:26:37.094Z,-1.87
2023-02-11T06:29:03.752Z,-1.82
2023-02-11T06:31:30.651Z,-1.75
2023-02-11T06:33:58.532Z,-1.54
2023-02-11T06:36:25.602Z,-1.45
2023-02-11T06:38:52.453Z,-1.34
2023-02-11T06:41:23.049Z,-1.21
2023-02-11T06:43:49.913Z,-1.16
2023-02-11T06:46:16.672Z,-1.15
2023-02-11T06:48:44.987Z,-1.16
2023-02-11T06:51:13.441Z,-1.27
2023-02-11T06:53:45.512Z,-1.14
2023-02-11T06:56:16.736Z,-1.49
2023-02-11T06:58:43.497Z,-1.66
2023-02-11T07:01:13.744Z,-1.38
2023-02-11T07:03:43.177Z,-1.07
2023-02-11T07:06:14.383Z,-0.86
2023-02-11T07:08:42.572Z,-0.80
2023-02-11T07:11:11.436Z,-1.20
2023-02-11T07:13:38.070Z,-1.15
2023-02-11T07:16:09.585Z,-0.84
2023-02-11T07:18:36.252Z,-0.88
2023-02-11T07:21:07.809Z,-0.69
2023-02-11T07:23:35.610Z,-0.59
2023-02-11T07:26:11.353Z,-0.46
2023-02-11T07:28:39.097Z,-0.35
2023-02-11T07:31:07.985Z,-0.26
2023-02-11T07:33:35.454Z,-0.24
2023-02-11T07:36:02.163Z,0.03
2023-02-11T07:38:28.792Z,0.03
2023-02-11T07:40:55.404Z,0.24
2023-02-11T07:43:21.975Z,0.11
2023-02-11T07:45:48.717Z,0.13
2023-02-11T07:48:15.462Z,0.16
2023-02-11T07:50:42.059Z,0.25
2023-02-11T07:53:08.646Z,0.44
2023-02-11T07:55:35.613Z,0.57
2023-02-11T07:58:02.181Z,0.65
2023-02-11T08:00:28.841Z,0.70
2023-02-11T08:02:57.490Z,0.83
2023-02-11T08:05:24.148Z,0.88
2023-02-11T08:07:55.129Z,0.89
2023-02-11T08:10:22.080Z,0.86
2023-02-11T08:12:48.757Z,0.47
2023-02-11T08:15:15.328Z,0.47
2023-02-11T08:17:41.934Z,0.89
2023-02-11T08:20:08.825Z,0.97
2023-02-11T08:22:35.471Z,0.97
2023-02-11T08:25:02.090Z,1.21
2023-02-11T08:27:29.105Z,1.12
2023-02-11T08:29:56.426Z,1.33
2023-02-11T08:32:25.584Z,1.45
2023-02-11T08:34:53.332Z,1.37
2023-02-11T08:37:20.458Z,1.59
2023-02-11T08:39:47.501Z,1.52
2023-02-11T08:42:15.665Z,1.54
2023-02-11T08:44:43.112Z,1.63
2023-02-11T08:47:09.793Z,1.59
2023-02-11T08:49:36.523Z,1.80
2023-02-11T08:52:03.989Z,1.89
2023-02-11T08:54:31.825Z,1.88
2023-02-11T08:56:58.584Z,2.03
2023-02-11T08:59:25.229Z,2.15
2023-02-11T09:01:51.936Z,2.26
2023-02-11T09:04:18.652Z,2.39
2023-02-11T09:06:45.999Z,2.22
2023-02-11T09:09:15.277Z,2.05
2023-02-11T09:11:43.900Z,2.06
2023-02-11T09:14:18.496Z,2.10
2023-02-11T09:16:45.156Z,2.16
2023-02-11T09:19:11.776Z,2.50
2023-02-11T09:21:38.536Z,2.76
2023-02-11T09:24:06.635Z,2.79
2023-02-11T09:26:35.674Z,2.98
2023-02-11T09:29:04.720Z,3.21
2023-02-11T09:31:33.040Z,3.36
2023-02-11T09:34:04.421Z,3.48
2023-02-11T09:36:34.424Z,3.15
2023-02-11T09:39:02.459Z,3.20
2023-02-11T09:41:40.925Z,3.39
2023-02-11T09:44:16.645Z,3.65
2023-02-11T09:46:47.753Z,3.68
2023-02-11T09:49:22.006Z,3.71
2023-02-11T09:51:54.895Z,3.92
2023-02-11T09:54:31.632Z,3.68
2023-02-11T09:56:58.322Z,3.51
2023-02-11T09:59:24.964Z,3.89
2023-02-11T10:02:02.425Z,4.03
2023-02-11T10:04:47.348Z,3.43
2023-02-11T10:07:21.180Z,3.23
2023-02-11T10:10:17.584Z,3.04
2023-02-11T10:13:08.014Z,2.97
2023-02-11T10:15:34.600Z,2.85
2023-02-11T10:18:35.742Z,2.80
2023-02-11T10:21:22.576Z,2.83
2023-02-11T10:23:53.872Z,3.00
2023-02-11T10:26:20.589Z,3.11
2023-02-11T10:28:50.334Z,3.29
2023-02-11T10:31:28.854Z,3.14
2023-02-11T10:34:12.921Z,3.17
2023-02-11T10:36:45.034Z,3.39
2023-02-11T10:39:18.295Z,3.50
2023-02-11T10:41:59.372Z,3.44
2023-02-11T10:44:31.308Z,3.52
2023-02-11T10:47:02.155Z,3.65
2023-02-11T10:49:42.277Z,3.97
2023-02-11T10:52:18.200Z,4.38
2023-02-11T10:54:59.466Z,4.64
2023-02-11T10:57:35.603Z,4.78
2023-02-11T11:00:21.169Z,5.02
2023-02-11T11:02:58.553Z,5.21
2023-02-11T11:05:45.591Z,5.29
2023-02-11T11:08:13.223Z,5.44
2023-02-11T11:10:45.990Z,5.58
2023-02-11T11:13:24.921Z,5.71
2023-02-11T11:16:10.285Z,5.83
2023-02-11T11:18:36.910Z,5.50
2023-02-11T11:21:12.849Z,5.44
2023-02-11T11:23:40.647Z,5.81
2023-02-11T11:26:15.815Z,5.72
2023-02-11T11:29:08.129Z,5.85
2023-02-11T11:31:46.427Z,5.95
2023-02-11T11:34:21.827Z,5.72
2023-02-11T11:36:49.998Z,5.93
2023-02-11T11:39:25.518Z,6.12
2023-02-11T11:41:55.394Z,6.03
2023-02-11T11:44:31.796Z,6.41
2023-02-11T11:47:13.601Z,6.72
2023-02-11T11:50:14.855Z,6.78
2023-02-11T11:53:01.668Z,6.90
2023-02-11T11:55:39.772Z,7.08
2023-02-11T11:58:13.571Z,7.04
2023-02-11T12:00:47.705Z,7.17
2023-02-11T12:03:32.849Z,7.34
2023-02-11T12:05:59.478Z,7.22
2023-02-11T12:08:38.148Z,7.12
2023-02-11T12:11:07.510Z,7.14
2023-02-11T12:13:56.676Z,6.90
2023-02-11T12:17:00.191Z,6.71
2023-02-11T12:19:45.504Z,6.56
2023-02-11T12:22:26.869Z,6.89
2023-02-11T12:25:08.648Z,6.76
2023-02-11T12:27:50.374Z,6.69
2023-02-11T12:30:50.006Z,6.73
2023-02-11T12:33:35.403Z,6.62
2023-02-11T12:36:35.435Z,6.78
2023-02-11T12:39:20.705Z,6.57
2023-02-11T12:42:38.042Z,6.71
2023-02-11T12:45:26.044Z,7.30
2023-02-11T12:48:15.571Z,7.53
2023-02-11T12:50:52.471Z,7.52
2023-02-11T12:53:40.048Z,7.07
2023-02-11T12:56:40.726Z,7.02
2023-02-11T12:59:17.388Z,7.42
2023-02-11T13:01:45.113Z,7.40
2023-02-11T13:04:35.354Z,7.35
2023-02-11T13:07:15.904Z,7.27
2023-02-11T13:09:51.045Z,7.08
2023-02-11T13:12:37.133Z,7.13
2023-02-11T13:15:07.990Z,7.52
2023-02-11T13:17:59.418Z,7.54
2023-02-11T13:20:38.406Z,7.41
2023-02-11T13:23:34.760Z,7.41
2023-02-11T13:26:15.503Z,7.58
2023-02-11T13:28:57.950Z,7.77
2023-02-11T13:31:27.544Z,7.84
2023-02-11T13:33:54.326Z,7.98
2023-02-11T13:36:26.679Z,8.08
2023-02-11T13:38:59.994Z,7.87
2023-02-11T13:41:38.092Z,7.34
2023-02-11T13:44:10.441Z,7.04
2023-02-11T13:46:58.254Z,7.14
2023-02-11T13:49:31.151Z,7.64
2023-02-11T13:51:58.945Z,7.88
2023-02-11T13:54:31.110Z,7.88
2023-02-11T13:57:26.947Z,7.96
2023-02-11T14:00:24.505Z,7.66
2023-02-11T14:03:29.277Z,7.59
2023-02-11T14:06:29.351Z,7.55
2023-02-11T14:09:35.147Z,7.47
2023-02-11T14:12:24.714Z,7.72
2023-02-11T14:15:07.974Z,7.43
2023-02-11T14:17:35.106Z,7.17
2023-02-11T14:20:04.741Z,7.42
2023-02-11T14:22:44.485Z,7.71
2023-02-11T14:25:22.774Z,7.99
2023-02-11T14:27:56.727Z,7.75
2023-02-11T14:30:46.164Z,7.43
2023-02-11T14:33:31.337Z,7.41
2023-02-11T14:36:16.322Z,7.61
2023-02-11T14:38:52.866Z,7.13
2023-02-11T14:41:34.201Z,6.57
2023-02-11T14:44:15.545Z,6.25
2023-02-11T14:46:47.870Z,6.28
2023-02-11T14:49:39.470Z,6.70
2023-02-11T14:52:24.611Z,6.94
2023-02-11T14:54:53.499Z,7.05
2023-02-11T14:57:20.886Z,6.78
2023-02-11T15:00:02.306Z,7.04
2023-02-11T15:02:33.567Z,7.22
2023-02-11T15:05:16.515Z,7.27
2023-02-11T15:07:52.988Z,7.34
2023-02-11T15:10:43.697Z,7.57
2023-02-11T15:13:19.769Z,7.42
2023-02-11T15:15:48.902Z,7.66
2023-02-11T15:18:22.742Z,7.65
2023-02-11T15:20:50.919Z,7.63
2023-02-11T15:23:27.364Z,7.79
2023-02-11T15:25:56.349Z,7.90
2023-02-11T15:28:31.679Z,7.68
2023-02-11T15:31:06.673Z,7.79
2023-02-11T15:33:33.506Z,7.90
2023-02-11T15:36:01.900Z,8.08
2023-02-11T15:38:30.242Z,8.00
2023-02-11T15:41:02.297Z,8.11
2023-02-11T15:43:42.863Z,8.24
2023-02-11T15:46:11.958Z,8.28
2023-02-11T15:48:51.892Z,8.41
2023-02-11T15:51:32.899Z,8.47
2023-02-11T15:54:02.620Z,8.40
2023-02-11T15:56:44.221Z,8.27
2023-02-11T15:59:25.877Z,7.91
2023-02-11T16:01:54.698Z,7.87
2023-02-11T16:04:24.197Z,7.88
2023-02-11T16:06:52.020Z,7.77
2023-02-11T16:09:34.063Z,7.88
2023-02-11T16:12:04.611Z,7.96
2023-02-11T16:14:34.348Z,7.49
2023-02-11T16:17:12.161Z,7.08
2023-02-11T16:19:48.595Z,7.06
2023-02-11T16:22:22.792Z,7.43
2023-02-11T16:24:52.761Z,7.58
2023-02-11T16:27:23.856Z,7.47
2023-02-11T16:29:51.364Z,7.69
2023-02-11T16:32:25.170Z,7.75
2023-02-11T16:34:53.568Z,7.62
2023-02-11T16:37:20.168Z,7.63
2023-02-11T16:39:46.942Z,7.67
2023-02-11T16:42:13.662Z,7.57
2023-02-11T16:44:40.328Z,7.51
2023-02-11T16:47:17.255Z,7.64
2023-02-11T16:49:43.991Z,7.52
2023-02-11T16:52:14.846Z,7.49
2023-02-11T16:54:41.712Z,7.44
2023-02-11T16:57:23.097Z,7.48
2023-02-11T16:59:50.344Z,7.32
2023-02-11T17:02:24.088Z,7.31
2023-02-11T17:04:53.464Z,7.16
2023-02-11T17:07:20.200Z,7.06
2023-02-11T17:09:46.790Z,6.96
2023-02-11T17:12:13.400Z,6.87
2023-02-11T17:14:40.020Z,6.79
2023-02-11T17:17:06.777Z,7.00
2023-02-11T17:19:33.371Z,7.06
2023-02-11T17:21:59.942Z,7.22
2023-02-11T17:24:26.556Z,7.01
2023-02-11T17:26:53.345Z,7.05
2023-02-11T17:29:23.113Z,7.12
2023-02-11T17:31:52.013Z,7.04
2023-02-11T17:34:20.531Z,6.80
2023-02-11T17:36:47.517Z,6.60
2023-02-11T17:39:14.265Z,6.57
2023-02-11T17:41:41.037Z,6.54
2023-02-11T17:44:08.478Z,6.79
2023-02-11T17:46:35.596Z,6.96
2023-02-11T17:49:03.449Z,6.79
2023-02-11T17:51:32.972Z,6.76
2023-02-11T17:54:02.406Z,6.71
2023-02-11T17:56:31.327Z,6.67
2023-02-11T17:58:57.990Z,6.73
2023-02-11T18:01:27.475Z,6.55
2023-02-11T18:03:54.103Z,6.71
2023-02-11T18:06:21.689Z,6.78
2023-02-11T18:08:48.549Z,6.76
2023-02-11T18:11:16.480Z,6.93
2023-02-11T18:13:45.253Z,6.90
2023-02-11T18:16:15.914Z,6.99
2023-02-11T18:18:43.443Z,7.00
2023-02-11T18:21:17.762Z,6.87
2023-02-11T18:23:44.647Z,6.79
2023-02-11T18:26:13.029Z,6.79
2023-02-11T18:28:41.165Z,6.75
2023-02-11T18:31:10.651Z,6.86
2023-02-11T18:33:41.272Z,6.98
2023-02-11T18:36:10.065Z,6.95
2023-02-11T18:38:36.781Z,6.87
2023-02-11T18:41:04.364Z,6.56
2023-02-11T18:43:33.671Z,6.67
2023-02-11T18:46:02.152Z,6.72
2023-02-11T18:48:28.860Z,6.90
2023-02-11T18:50:55.835Z,6.82
2023-02-11T18:53:23.289Z,6.94
2023-02-11T18:55:50.092Z,6.83
2023-02-11T18:58:17.183Z,6.74
2023-02-11T19:00:49.191Z,6.76
2023-02-11T19:03:16.881Z,6.95
2023-02-11T19:05:47.949Z,6.70
2023-02-11T19:08:15.267Z,6.49
2023-02-11T19:10:43.850Z,6.74
2023-02-11T19:13:10.708Z,6.79
2023-02-11T19:15:46.692Z,6.81
2023-02-11T19:18:14.741Z,6.88
2023-02-11T19:20:43.476Z,6.74
2023-02-11T19:23:10.930Z,6.89
2023-02-11T19:25:38.232Z,6.95
2023-02-11T19:28:05.036Z,6.92
2023-02-11T19:30:31.692Z,6.91
2023-02-11T19:32:58.415Z,7.04
2023-02-11T19:35:25.556Z,7.00
2023-02-11T19:37:52.260Z,7.05
2023-02-11T19:40:21.254Z,7.07
2023-02-11T19:42:48.234Z,7.07
2023-02-11T19:45:14.948Z,7.15
2023-02-11T19:47:41.537Z,7.11
2023-02-11T19:50:09.434Z,6.87
2023-02-11T19:52:40.550Z,7.06
2023-02-11T19:55:07.773Z,6.94
2023-02-11T19:57:34.365Z,6.97
2023-02-11T20:00:01.467Z,7.02
2023-02-11T20:02:29.255Z,6.99
2023-02-11T20:04:55.878Z,7.10
2023-02-11T20:07:22.575Z,7.11
2023-02-11T20:09:49.173Z,7.18
2023-02-11T20:12:15.750Z,6.91
2023-02-11T20:14:42.340Z,6.99
2023-02-11T20:17:08.929Z,7.03
2023-02-11T20:19:35.540Z,7.04
2023-02-11T20:22:02.148Z,7.09
2023-02-11T20:24:28.713Z,6.99
2023-02-11T20:26:56.125Z,7.10
2023-02-11T20:29:23.811Z,7.05
2023-02-11T20:31:50.956Z,6.61
2023-02-11T20:34:18.763Z,6.53
2023-02-11T20:36:51.976Z,6.87
2023-02-11T20:39:21.741Z,7.01
2023-02-11T20:41:48.724Z,6.63
2023-02-11T20:44:15.359Z,6.53
2023-02-11T20:46:46.528Z,6.76
2023-02-11T20:49:16.731Z,6.91
2023-02-11T20:51:43.475Z,6.89
2023-02-11T20:54:18.792Z,6.93
2023-02-11T20:56:48.106Z,6.94
2023-02-11T20:59:16.703Z,6.94
2023-02-11T21:01:46.233Z,6.90
2023-02-11T21:04:16.790Z,6.91
2023-02-11T21:06:47.310Z,6.94
2023-02-11T21:09:17.429Z,6.80
2023-02-11T21:11:44.003Z,6.82
2023-02-11T21:14:12.020Z,6.89
2023-02-11T21:16:39.861Z,6.97
2023-02-11T21:19:06.976Z,6.81
2023-02-11T21:21:36.050Z,6.71
2023-02-11T21:24:02.730Z,6.91
2023-02-11T21:26:29.364Z,6.93
2023-02-11T21:28:55.991Z,7.01
2023-02-11T21:31:26.150Z,7.01
2023-02-11T21:33:55.089Z,6.93
2023-02-11T21:36:23.524Z,6.92
2023-02-11T21:38:50.266Z,6.87
2023-02-11T21:41:18.515Z,6.97
2023-02-11T21:43:45.732Z,7.09
2023-02-11T21:46:14.593Z,6.80
2023-02-11T21:48:41.617Z,6.93
2023-02-11T21:51:12.824Z,6.91
2023-02-11T21:53:39.496Z,6.89
2023-02-11T21:56:08.776Z,7.01
2023-02-11T21:58:36.535Z,7.10
2023-02-11T22:01:14.622Z,7.29
2023-02-11T22:03:41.846Z,7.25
2023-02-11T22:06:11.422Z,7.22
2023-02-11T22:08:39.661Z,7.06
2023-02-11T22:11:09.093Z,7.19
2023-02-11T22:13:36.636Z,7.20
2023-02-11T22:16:07.409Z,7.19
2023-02-11T22:18:34.120Z,7.17
2023-02-11T22:21:02.651Z,7.06
2023-02-11T22:23:30.053Z,6.82
2023-02-11T22:25:57.679Z,6.65
2023-02-11T22:28:25.981Z,6.54
2023-02-11T22:30:56.985Z,6.33
2023-02-11T22:33:28.612Z,6.41
2023-02-11T22:36:03.575Z,6.64
2023-02-11T22:38:32.368Z,6.43
2023-02-11T22:41:00.625Z,6.46
2023-02-11T22:43:27.978Z,6.66
2023-02-11T22:45:56.574Z,6.90
2023-02-11T22:48:23.446Z,6.83
2023-02-11T22:50:50.041Z,6.64
2023-02-11T22:53:16.680Z,6.37
2023-02-11T22:55:43.573Z,5.66
2023-02-11T22:58:10.465Z,5.39
2023-02-11T23:00:41.548Z,4.93
2023-02-11T23:03:10.214Z,5.03
2023-02-11T23:05:41.458Z,5.01
2023-02-11T23:08:10.205Z,5.35
2023-02-11T23:10:38.618Z,5.56
2023-02-11T23:13:06.646Z,5.66
2023-02-11T23:15:34.034Z,5.81
2023-02-11T23:18:00.656Z,5.72
2023-02-11T23:20:27.269Z,5.68
2023-02-11T23:22:53.904Z,5.50
2023-02-11T23:25:20.487Z,5.73
2023-02-11T23:27:47.133Z,5.79
2023-02-11T23:30:14.192Z,5.93
2023-02-11T23:32:40.920Z,6.01
2023-02-11T23:35:07.844Z,6.26
2023-02-11T23:37:34.521Z,6.41
2023-02-11T23:40:01.139Z,6.46
2023-02-11T23:42:28.797Z,6.51
2023-02-11T23:44:55.404Z,6.57
2023-02-11T23:47:22.018Z,6.55
2023-02-11T23:49:48.602Z,6.73
2023-02-11T23:52:15.301Z,6.82
2023-02-11T23:54:43.402Z,6.93
2023-02-11T23:57:10.148Z,6.90
2023-02-11T23:59:36.886Z,6.91
